Time;durP1;ratioP1;P1;durP2;ratioP2;P2;SDS_P1;SDS_P2;PMS_P1;PMS_P2;Temp;Humidity;BMP_temperature;BMP_pressure;BME280_temperature;BME280_humidity;BME280_pressure;Samples;Min_cycle;Max_cycle;Signal;HPM_P1;HPM_P2
2023/09/23 00:00:13;;;;;;;10.25;6.90;;;;;;;;;;4974871;28;20027;-66
2023/09/23 00:02:44;;;;;;;11.93;6.43;;;;;;;;;;4974583;28;20137;-65
2023/09/23 00:05:14;;;;;;;9.52;7.10;;;;;;;;;;4973587;28;20412;-66
2023/09/23 00:07:40;;;;;;;8.57;6.88;;;;;;;;;;4974629;28;20428;-65
2023/09/23 00:10:08;;;;;;;9.10;6.50;;;;;;;;;;4974875;28;20027;-65
2023/09/23 00:12:40;;;;;;;9.18;6.70;;;;;;;;;;4974272;28;20216;-63
2023/09/23 00:15:07;;;;;;;8.40;6.55;;;;;;;;;;4974617;28;20495;-63
2023/09/23 00:17:33;;;;;;;9.82;7.40;;;;;;;;;;4974468;28;20402;-65
2023/09/23 00:20:00;;;;;;;9.88;7.18;;;;;;;;;;4974579;28;20082;-64
2023/09/23 00:22:26;;;;;;;8.30;6.55;;;;;;;;;;4974294;28;20030;-65
2023/09/23 00:24:54;;;;;;;10.15;7.05;;;;;;;;;;4974301;28;20033;-62
2023/09/23 00:27:19;;;;;;;9.63;7.15;;;;;;;;;;4974056;28;20033;-64
2023/09/23 00:29:45;;;;;;;16.30;6.50;;;;;;;;;;4974274;28;20101;-62
2023/09/23 00:32:12;;;;;;;9.07;6.72;;;;;;;;;;4974235;28;20073;-64
2023/09/23 00:34:38;;;;;;;10.88;7.38;;;;;;;;;;4974179;28;20030;-65
2023/09/23 00:37:04;;;;;;;10.40;7.65;;;;;;;;;;4973552;28;20093;-63
2023/09/23 00:39:29;;;;;;;9.57;6.55;;;;;;;;;;4974012;28;20034;-65
2023/09/23 00:41:55;;;;;;;11.82;6.55;;;;;;;;;;4973892;28;20031;-65
2023/09/23 00:44:20;;;;;;;13.38;6.95;;;;;;;;;;4974179;28;20039;-63
2023/09/23 00:46:46;;;;;;;8.88;6.70;;;;;;;;;;4990741;28;20029;-63
2023/09/23 00:49:13;;;;;;;8.00;6.40;;;;;;;;;;4993586;28;20035;-63
2023/09/23 00:51:40;;;;;;;10.02;6.22;;;;;;;;;;4993427;28;20431;-63
2023/09/23 00:54:06;;;;;;;6.72;5.30;;;;;;;;;;4993406;28;20037;-63
2023/09/23 00:56:32;;;;;;;9.63;6.38;;;;;;;;;;4993162;28;20414;-64
2023/09/23 00:58:59;;;;;;;7.63;6.05;;;;;;;;;;4992049;28;20365;-62
2023/09/23 01:01:26;;;;;;;7.93;6.40;;;;;;;;;;4993205;28;20130;-64
2023/09/23 01:03:52;;;;;;;7.00;6.10;;;;;;;;;;4993314;28;20042;-65
2023/09/23 01:06:19;;;;;;;9.20;6.18;;;;;;;;;;4992051;28;20033;-63
2023/09/23 01:08:46;;;;;;;10.05;5.97;;;;;;;;;;4973862;28;20053;-63
2023/09/23 01:11:13;;;;;;;7.25;5.75;;;;;;;;;;4973668;28;20031;-66
2023/09/23 01:13:38;;;;;;;8.27;6.10;;;;;;;;;;4973845;28;20038;-66
2023/09/23 01:16:11;;;;;;;9.23;6.13;;;;;;;;;;4973813;28;20035;-63
2023/09/23 01:18:37;;;;;;;13.90;5.95;;;;;;;;;;4973690;28;20023;-64
2023/09/23 01:21:07;;;;;;;7.35;6.20;;;;;;;;;;4973676;28;20106;-65
2023/09/23 01:23:34;;;;;;;13.00;7.53;;;;;;;;;;4973383;28;20031;-66
2023/09/23 01:26:00;;;;;;;8.90;6.18;;;;;;;;;;4973711;28;20030;-66
2023/09/23 01:28:25;;;;;;;9.35;6.43;;;;;;;;;;4973631;28;20018;-64
2023/09/23 01:30:51;;;;;;;9.55;6.18;;;;;;;;;;4973587;28;20026;-64
2023/09/23 01:33:17;;;;;;;9.25;6.30;;;;;;;;;;4973640;28;20027;-65
2023/09/23 01:35:43;;;;;;;8.88;6.15;;;;;;;;;;4973608;28;20038;-66
2023/09/23 01:38:09;;;;;;;7.95;6.32;;;;;;;;;;4973244;28;20034;-65
2023/09/23 01:40:39;;;;;;;11.52;5.60;;;;;;;;;;4973522;28;20412;-66
2023/09/23 01:43:06;;;;;;;11.05;6.25;;;;;;;;;;4973454;28;20030;-66
2023/09/23 01:45:31;;;;;;;8.27;5.55;;;;;;;;;;4973351;28;20069;-66
2023/09/23 01:47:57;;;;;;;8.60;5.95;;;;;;;;;;4974181;28;20054;-67
2023/09/23 01:50:27;;;;;;;16.00;6.18;;;;;;;;;;4977358;28;20035;-66
2023/09/23 01:52:54;;;;;;;10.68;6.60;;;;;;;;;;4977111;28;20026;-66
2023/09/23 01:55:20;;;;;;;9.15;6.05;;;;;;;;;;4977129;28;20373;-66
2023/09/23 01:57:49;;;;;;;10.27;6.60;;;;;;;;;;4977186;28;20113;-67
2023/09/23 02:00:18;;;;;;;10.02;6.00;;;;;;;;;;4977004;28;20034;-66
2023/09/23 02:02:48;;;;;;;10.65;6.47;;;;;;;;;;4976663;28;20051;-65
2023/09/23 02:05:15;;;;;;;12.68;6.65;;;;;;;;;;4976975;28;20026;-65
2023/09/23 02:07:41;;;;;;;9.60;6.40;;;;;;;;;;4976597;28;20045;-66
2023/09/23 02:10:09;;;;;;;10.10;6.35;;;;;;;;;;4976706;28;20035;-65
2023/09/23 02:12:35;;;;;;;8.00;6.35;;;;;;;;;;4976572;28;20027;-65
2023/09/23 02:15:00;;;;;;;8.82;6.38;;;;;;;;;;4976925;28;20100;-66
2023/09/23 02:17:25;;;;;;;9.90;6.10;;;;;;;;;;4976741;28;20045;-66
2023/09/23 02:19:53;;;;;;;7.57;6.38;;;;;;;;;;4976668;28;20038;-65
2023/09/23 02:22:19;;;;;;;8.07;6.78;;;;;;;;;;4976229;28;20060;-66
2023/09/23 02:24:44;;;;;;;8.40;6.07;;;;;;;;;;4976520;28;20023;-66
2023/09/23 02:27:10;;;;;;;13.43;6.53;;;;;;;;;;4976620;28;20023;-65
2023/09/23 02:29:36;;;;;;;9.38;7.05;;;;;;;;;;4976258;28;20122;-65
2023/09/23 02:32:02;;;;;;;13.85;6.13;;;;;;;;;;4976466;28;20069;-64
2023/09/23 02:34:30;;;;;;;10.43;6.10;;;;;;;;;;4976457;28;20077;-63
2023/09/23 02:36:57;;;;;;;10.65;6.28;;;;;;;;;;4976227;28;20023;-65
2023/09/23 02:39:23;;;;;;;9.25;6.90;;;;;;;;;;4976331;28;20035;-65
2023/09/23 02:41:50;;;;;;;10.60;6.20;;;;;;;;;;4976236;28;20027;-66
2023/09/23 02:44:19;;;;;;;7.38;5.97;;;;;;;;;;4976136;28;20038;-64
2023/09/23 02:46:48;;;;;;;10.57;6.18;;;;;;;;;;4976040;28;20031;-65
2023/09/23 02:49:14;;;;;;;8.35;5.63;;;;;;;;;;4976217;28;20026;-65
2023/09/23 02:51:41;;;;;;;8.63;5.97;;;;;;;;;;4975839;28;20081;-66
2023/09/23 02:54:08;;;;;;;12.35;5.60;;;;;;;;;;4976123;28;20035;-65
2023/09/23 02:56:34;;;;;;;7.75;5.88;;;;;;;;;;4975966;28;20031;-65
2023/09/23 02:59:00;;;;;;;7.75;5.90;;;;;;;;;;4975970;28;20113;-66
2023/09/23 03:01:27;;;;;;;7.60;5.50;;;;;;;;;;4975060;28;20546;-66
2023/09/23 03:03:55;;;;;;;8.15;5.72;;;;;;;;;;4975906;28;20035;-66
2023/09/23 03:06:22;;;;;;;7.10;5.65;;;;;;;;;;4975497;28;20512;-66
2023/09/23 03:08:53;;;;;;;10.52;5.78;;;;;;;;;;4975865;28;20035;-66
2023/09/23 03:11:19;;;;;;;7.57;5.55;;;;;;;;;;4975712;28;20516;-65
2023/09/23 03:13:44;;;;;;;8.18;4.82;;;;;;;;;;4975821;28;20090;-64
2023/09/23 03:16:13;;;;;;;6.63;5.57;;;;;;;;;;4975851;28;20019;-65
2023/09/23 03:18:54;;;;;;;8.63;5.55;;;;;;;;;;4975645;28;20034;-66
2023/09/23 03:21:20;;;;;;;8.75;5.80;;;;;;;;;;4975320;28;20118;-65
2023/09/23 03:23:45;;;;;;;9.25;5.88;;;;;;;;;;4975498;28;20122;-67
2023/09/23 03:26:15;;;;;;;9.32;5.75;;;;;;;;;;4975499;28;20030;-65
2023/09/23 03:28:42;;;;;;;7.97;5.90;;;;;;;;;;4975376;28;20045;-66
2023/09/23 03:31:08;;;;;;;13.98;6.22;;;;;;;;;;4975347;28;20299;-65
2023/09/23 03:33:34;;;;;;;6.43;5.18;;;;;;;;;;4975356;28;20030;-65
2023/09/23 03:35:59;;;;;;;8.30;5.43;;;;;;;;;;4975164;28;20053;-65
2023/09/23 03:38:25;;;;;;;9.20;5.30;;;;;;;;;;4975061;28;20026;-65
2023/09/23 03:40:59;;;;;;;9.25;5.20;;;;;;;;;;4975190;28;20034;-65
2023/09/23 03:43:25;;;;;;;8.93;5.55;;;;;;;;;;4975022;28;20058;-65
2023/09/23 03:45:51;;;;;;;6.93;4.85;;;;;;;;;;4975140;28;20468;-66
2023/09/23 03:48:17;;;;;;;8.63;5.35;;;;;;;;;;4975076;28;20054;-65
2023/09/23 03:50:42;;;;;;;8.35;5.30;;;;;;;;;;4974741;28;20031;-64
2023/09/23 03:53:11;;;;;;;7.95;5.45;;;;;;;;;;4975032;28;20069;-65
2023/09/23 03:55:37;;;;;;;9.85;5.43;;;;;;;;;;4974934;28;20025;-64
2023/09/23 03:58:04;;;;;;;8.27;5.40;;;;;;;;;;4974950;28;20019;-66
2023/09/23 04:00:33;;;;;;;7.45;5.63;;;;;;;;;;4974726;28;20042;-65
2023/09/23 04:02:59;;;;;;;6.70;5.47;;;;;;;;;;4974125;28;20071;-64
2023/09/23 04:05:26;;;;;;;6.57;5.18;;;;;;;;;;4974014;28;20041;-65
2023/09/23 04:07:52;;;;;;;6.45;5.25;;;;;;;;;;4972802;28;20476;-63
2023/09/23 04:10:19;;;;;;;10.60;5.18;;;;;;;;;;4972821;28;20029;-64
2023/09/23 04:12:45;;;;;;;7.78;5.18;;;;;;;;;;4971494;28;20031;-64
2023/09/23 04:15:11;;;;;;;9.30;5.15;;;;;;;;;;4972855;28;20505;-63
2023/09/23 04:17:38;;;;;;;9.73;5.40;;;;;;;;;;4972562;28;20475;-65
2023/09/23 04:20:10;;;;;;;9.65;5.35;;;;;;;;;;4972693;28;20027;-65
2023/09/23 04:22:37;;;;;;;8.38;5.50;;;;;;;;;;4972628;28;20031;-65
2023/09/23 04:25:07;;;;;;;9.38;5.80;;;;;;;;;;4972371;28;20498;-64
2023/09/23 04:27:33;;;;;;;7.68;5.47;;;;;;;;;;4972665;28;20066;-64
2023/09/23 04:30:00;;;;;;;7.55;5.38;;;;;;;;;;4972517;28;20027;-65
2023/09/23 04:32:26;;;;;;;9.98;5.38;;;;;;;;;;4972399;28;20062;-65
2023/09/23 04:34:52;;;;;;;7.45;5.05;;;;;;;;;;4972443;28;20026;-63
2023/09/23 04:37:17;;;;;;;6.88;5.10;;;;;;;;;;4972709;28;20113;-64
2023/09/23 04:39:43;;;;;;;8.48;5.85;;;;;;;;;;4968531;28;20065;-64
2023/09/23 04:42:09;;;;;;;8.90;5.18;;;;;;;;;;4971987;28;20034;-65
2023/09/23 04:44:34;;;;;;;9.32;5.32;;;;;;;;;;4972464;28;20023;-63
2023/09/23 04:47:00;;;;;;;9.07;5.50;;;;;;;;;;4971967;28;20503;-65
2023/09/23 04:49:27;;;;;;;10.63;5.53;;;;;;;;;;4972487;28;20027;-65
2023/09/23 04:51:52;;;;;;;9.82;6.07;;;;;;;;;;4972058;28;20078;-65
2023/09/23 04:54:18;;;;;;;8.20;5.60;;;;;;;;;;4971107;28;20105;-64
2023/09/23 04:56:43;;;;;;;10.13;5.90;;;;;;;;;;4972243;28;20027;-63
2023/09/23 04:59:10;;;;;;;10.52;6.10;;;;;;;;;;4972152;28;20349;-64
2023/09/23 05:01:35;;;;;;;8.77;5.85;;;;;;;;;;4971682;28;20047;-65
2023/09/23 05:04:03;;;;;;;9.23;5.60;;;;;;;;;;4972022;28;20041;-63
2023/09/23 05:06:28;;;;;;;8.73;6.13;;;;;;;;;;4971886;28;20038;-64
2023/09/23 05:08:55;;;;;;;8.43;5.97;;;;;;;;;;4972173;28;20396;-65
2023/09/23 05:11:20;;;;;;;7.18;5.82;;;;;;;;;;4971946;28;20058;-63
2023/09/23 05:13:46;;;;;;;7.75;6.03;;;;;;;;;;4972095;28;20488;-63
2023/09/23 05:16:11;;;;;;;8.30;6.15;;;;;;;;;;4971768;28;20118;-66
2023/09/23 05:18:38;;;;;;;9.43;5.80;;;;;;;;;;4971821;28;20138;-63
2023/09/23 05:21:04;;;;;;;10.75;6.47;;;;;;;;;;4971979;28;20061;-66
2023/09/23 05:23:30;;;;;;;12.07;6.57;;;;;;;;;;4973488;28;20464;-66
2023/09/23 05:25:57;;;;;;;11.48;6.30;;;;;;;;;;4975865;28;20126;-65
2023/09/23 05:28:23;;;;;;;7.50;6.30;;;;;;;;;;4975768;28;20077;-65
2023/09/23 05:30:49;;;;;;;8.95;6.38;;;;;;;;;;4975669;28;20480;-63
2023/09/23 05:33:15;;;;;;;11.20;5.72;;;;;;;;;;4975777;28;20213;-64
2023/09/23 05:35:41;;;;;;;9.80;5.90;;;;;;;;;;4975693;28;20019;-64
2023/09/23 05:38:09;;;;;;;9.70;6.43;;;;;;;;;;4975481;28;20060;-63
2023/09/23 05:40:37;;;;;;;8.10;6.10;;;;;;;;;;4965747;28;20028;-65
2023/09/23 05:43:03;;;;;;;11.05;6.07;;;;;;;;;;4956093;28;20066;-66
2023/09/23 05:45:29;;;;;;;8.63;6.38;;;;;;;;;;4962206;28;20061;-67
2023/09/23 05:47:55;;;;;;;9.95;6.00;;;;;;;;;;4975571;28;20055;-66
2023/09/23 05:50:21;;;;;;;9.23;5.88;;;;;;;;;;4975353;28;20487;-64
2023/09/23 05:52:47;;;;;;;8.95;4.85;;;;;;;;;;4975374;28;20335;-65
2023/09/23 05:55:13;;;;;;;11.10;6.05;;;;;;;;;;4975579;28;20480;-65
2023/09/23 05:57:40;;;;;;;6.68;5.55;;;;;;;;;;4975255;28;20031;-65
2023/09/23 06:00:10;;;;;;;9.60;5.97;;;;;;;;;;4974870;28;20030;-65
2023/09/23 06:02:36;;;;;;;;;;;;;;;;;;4975360;28;20151;-64
2023/09/23 06:05:02;;;;;;;8.73;5.30;;;;;;;;;;4975191;28;19918;-65
2023/09/23 06:07:28;;;;;;;8.02;4.70;;;;;;;;;;4975035;28;20057;-65
2023/09/23 06:09:55;;;;;;;6.40;4.07;;;;;;;;;;4975083;28;20034;-64
2023/09/23 06:12:20;;;;;;;6.18;3.50;;;;;;;;;;4975016;28;20503;-65
2023/09/23 06:14:46;;;;;;;6.97;3.38;;;;;;;;;;4974820;28;20027;-63
2023/09/23 06:17:11;;;;;;;5.38;3.17;;;;;;;;;;4974971;28;20039;-62
2023/09/23 06:19:36;;;;;;;4.78;3.00;;;;;;;;;;4974823;28;20623;-63
2023/09/23 06:22:02;;;;;;;5.68;2.95;;;;;;;;;;4974951;28;20031;-63
2023/09/23 06:24:27;;;;;;;4.10;2.40;;;;;;;;;;4974682;28;20031;-66
2023/09/23 06:26:53;;;;;;;6.75;3.13;;;;;;;;;;4974829;28;20030;-64
2023/09/23 06:29:18;;;;;;;5.07;2.67;;;;;;;;;;4974529;28;20023;-65
2023/09/23 06:31:43;;;;;;;5.07;2.30;;;;;;;;;;4974639;28;20022;-64
2023/09/23 06:34:09;;;;;;;4.88;2.83;;;;;;;;;;4974147;28;20031;-66
2023/09/23 06:36:34;;;;;;;6.85;2.78;;;;;;;;;;4974004;28;20042;-63
2023/09/23 06:39:00;;;;;;;6.05;2.55;;;;;;;;;;4974514;28;20022;-65
2023/09/23 06:41:25;;;;;;;5.65;2.50;;;;;;;;;;4958103;28;20444;-67
2023/09/23 06:43:52;;;;;;;2.95;2.10;;;;;;;;;;4954967;28;20539;-63
2023/09/23 06:46:17;;;;;;;6.68;2.08;;;;;;;;;;4967908;28;20037;-66
2023/09/23 06:48:43;;;;;;;4.15;2.20;;;;;;;;;;4974405;28;20464;-66
2023/09/23 06:51:09;;;;;;;2.97;1.98;;;;;;;;;;4971402;28;20041;-63
2023/09/23 06:53:34;;;;;;;3.50;1.88;;;;;;;;;;4964440;28;20022;-66
2023/09/23 06:56:00;;;;;;;4.68;1.98;;;;;;;;;;4963098;28;20027;-65
2023/09/23 06:58:26;;;;;;;3.75;2.00;;;;;;;;;;4963132;28;20032;-66
2023/09/23 07:00:51;;;;;;;2.78;1.88;;;;;;;;;;4964930;28;20031;-63
2023/09/23 07:03:17;;;;;;;5.32;2.13;;;;;;;;;;4963718;28;20039;-63
2023/09/23 07:05:43;;;;;;;4.13;1.70;;;;;;;;;;4963874;28;20019;-63
2023/09/23 07:08:09;;;;;;;5.68;2.20;;;;;;;;;;4967111;28;20323;-63
2023/09/23 07:10:36;;;;;;;8.18;2.55;;;;;;;;;;4963397;28;20023;-63
2023/09/23 07:13:03;;;;;;;2.95;1.67;;;;;;;;;;4963515;28;20022;-64
2023/09/23 07:15:36;;;;;;;5.05;1.70;;;;;;;;;;4965118;28;20487;-64
2023/09/23 07:18:03;;;;;;;4.30;1.65;;;;;;;;;;4964498;28;20035;-63
2023/09/23 07:20:28;;;;;;;3.13;1.90;;;;;;;;;;4962913;28;20019;-64
2023/09/23 07:22:54;;;;;;;3.40;1.55;;;;;;;;;;4964361;28;20046;-64
2023/09/23 07:25:19;;;;;;;4.10;2.03;;;;;;;;;;4964699;28;20098;-65
2023/09/23 07:27:45;;;;;;;4.47;2.00;;;;;;;;;;4964302;28;20030;-65
2023/09/23 07:30:11;;;;;;;3.75;1.75;;;;;;;;;;4963762;28;20018;-63
2023/09/23 07:32:36;;;;;;;3.35;1.80;;;;;;;;;;4963135;28;20035;-63
2023/09/23 07:35:03;;;;;;;5.50;1.80;;;;;;;;;;4973995;28;20030;-64
2023/09/23 07:37:29;;;;;;;2.90;1.80;;;;;;;;;;4976973;28;20118;-64
2023/09/23 07:39:54;;;;;;;5.53;1.73;;;;;;;;;;4967378;28;20509;-63
2023/09/23 07:42:20;;;;;;;2.60;1.67;;;;;;;;;;4965323;28;20027;-63
2023/09/23 07:44:46;;;;;;;3.95;1.40;;;;;;;;;;4957071;28;20043;-63
2023/09/23 07:47:11;;;;;;;3.58;1.60;;;;;;;;;;4976247;28;20118;-63
2023/09/23 07:49:37;;;;;;;2.80;1.52;;;;;;;;;;4975069;28;20049;-63
2023/09/23 07:52:03;;;;;;;4.53;1.70;;;;;;;;;;4975084;28;20417;-63
2023/09/23 07:54:29;;;;;;;3.55;1.95;;;;;;;;;;4974875;28;20117;-62
2023/09/23 07:56:54;;;;;;;3.15;1.70;;;;;;;;;;4974745;28;20380;-63
2023/09/23 07:59:19;;;;;;;4.18;1.88;;;;;;;;;;4974623;28;20477;-65
2023/09/23 08:01:45;;;;;;;4.65;1.60;;;;;;;;;;4974709;28;20042;-64
2023/09/23 08:04:10;;;;;;;3.55;1.40;;;;;;;;;;4974752;28;20538;-65
2023/09/23 08:06:36;;;;;;;3.13;1.45;;;;;;;;;;4974896;28;20038;-64
2023/09/23 08:09:01;;;;;;;2.58;1.30;;;;;;;;;;4974847;28;20122;-64
2023/09/23 08:11:27;;;;;;;3.10;1.52;;;;;;;;;;4971595;28;20031;-64
2023/09/23 08:13:53;;;;;;;5.28;1.88;;;;;;;;;;4963572;28;20397;-63
2023/09/23 08:16:19;;;;;;;2.92;1.40;;;;;;;;;;4963507;28;20030;-63
2023/09/23 08:18:44;;;;;;;3.78;1.50;;;;;;;;;;4963531;28;20031;-62
2023/09/23 08:21:11;;;;;;;2.53;1.35;;;;;;;;;;4973250;28;20019;-63
2023/09/23 08:23:36;;;;;;;2.38;1.27;;;;;;;;;;4974667;28;20037;-63
2023/09/23 08:26:04;;;;;;;3.45;1.65;;;;;;;;;;4974231;28;20465;-63
2023/09/23 08:28:30;;;;;;;3.00;1.45;;;;;;;;;;4974244;28;20026;-63
2023/09/23 08:30:56;;;;;;;4.18;1.73;;;;;;;;;;4966523;28;20370;-63
2023/09/23 08:33:22;;;;;;;2.03;1.40;;;;;;;;;;4955126;28;20047;-63
2023/09/23 08:35:48;;;;;;;2.45;1.40;;;;;;;;;;4972038;28;20031;-63
2023/09/23 08:38:14;;;;;;;3.70;1.40;;;;;;;;;;4974198;28;20033;-64
2023/09/23 08:40:42;;;;;;;2.42;1.20;;;;;;;;;;4973863;28;20018;-63
2023/09/23 08:43:07;;;;;;;3.20;1.23;;;;;;;;;;4974022;28;20062;-63
2023/09/23 08:45:40;;;;;;;4.93;1.50;;;;;;;;;;4980948;28;20053;-64
2023/09/23 08:48:06;;;;;;;4.05;1.50;;;;;;;;;;4992287;28;20396;-66
2023/09/23 08:50:32;;;;;;;5.18;1.50;;;;;;;;;;4993442;28;20050;-65
2023/09/23 08:52:59;;;;;;;3.90;1.60;;;;;;;;;;4993095;28;20476;-63
2023/09/23 08:55:25;;;;;;;3.20;1.33;;;;;;;;;;4993385;28;20113;-63
2023/09/23 08:57:50;;;;;;;3.05;1.30;;;;;;;;;;4992770;28;20030;-63
2023/09/23 09:00:18;;;;;;;4.75;1.48;;;;;;;;;;4993189;28;20030;-63
2023/09/23 09:02:44;;;;;;;4.75;1.50;;;;;;;;;;4993058;28;20377;-65
2023/09/23 09:05:09;;;;;;;3.13;1.33;;;;;;;;;;4993278;28;20029;-66
2023/09/23 09:07:36;;;;;;;3.83;1.60;;;;;;;;;;4981787;28;20026;-65
2023/09/23 09:10:02;;;;;;;2.50;1.40;;;;;;;;;;4973823;28;20050;-66
2023/09/23 09:12:30;;;;;;;4.10;1.38;;;;;;;;;;4973710;28;20026;-66
2023/09/23 09:14:56;;;;;;;2.38;1.00;;;;;;;;;;4973834;28;20045;-66
2023/09/23 09:17:21;;;;;;;3.25;1.20;;;;;;;;;;4974004;28;20373;-64
2023/09/23 09:19:48;;;;;;;1.83;1.13;;;;;;;;;;4973702;28;20027;-62
2023/09/23 09:22:14;;;;;;;2.60;1.42;;;;;;;;;;4972190;28;20057;-66
2023/09/23 09:24:40;;;;;;;3.05;1.30;;;;;;;;;;4973455;28;20035;-66
2023/09/23 09:27:13;;;;;;;2.30;1.20;;;;;;;;;;4973715;28;20450;-63
2023/09/23 09:29:42;;;;;;;6.32;1.35;;;;;;;;;;4973515;28;20023;-63
2023/09/23 09:32:10;;;;;;;2.22;1.30;;;;;;;;;;4973933;28;20031;-63
2023/09/23 09:34:43;;;;;;;2.92;1.20;;;;;;;;;;4973668;28;20073;-64
2023/09/23 09:37:11;;;;;;;2.70;1.17;;;;;;;;;;4973484;28;20070;-64
2023/09/23 09:39:49;;;;;;;2.50;1.13;;;;;;;;;;4973258;28;20023;-63
2023/09/23 09:42:19;;;;;;;2.47;1.20;;;;;;;;;;4973422;28;20031;-63
2023/09/23 09:44:46;;;;;;;2.70;1.10;;;;;;;;;;4973498;28;20023;-63
2023/09/23 09:47:13;;;;;;;2.85;1.10;;;;;;;;;;4973611;28;20031;-63
2023/09/23 09:49:41;;;;;;;8.02;1.00;;;;;;;;;;4973362;28;20523;-63
2023/09/23 09:52:08;;;;;;;3.72;1.00;;;;;;;;;;4973423;28;20082;-64
2023/09/23 09:54:36;;;;;;;5.80;1.40;;;;;;;;;;4973479;28;20106;-63
2023/09/23 09:57:02;;;;;;;3.22;1.05;;;;;;;;;;4973348;28;20030;-63
2023/09/23 09:59:30;;;;;;;2.67;1.08;;;;;;;;;;4973591;28;20039;-63
2023/09/23 10:01:57;;;;;;;3.92;1.48;;;;;;;;;;4973190;28;20047;-63
2023/09/23 10:04:22;;;;;;;3.05;1.20;;;;;;;;;;4973170;28;20031;-64
2023/09/23 10:06:54;;;;;;;2.42;1.15;;;;;;;;;;4973216;28;20026;-64
2023/09/23 10:09:30;;;;;;;3.22;1.08;;;;;;;;;;4974415;28;20069;-65
2023/09/23 10:11:58;;;;;;;4.18;1.27;;;;;;;;;;4976820;28;20498;-65
2023/09/23 10:14:24;;;;;;;3.42;1.70;;;;;;;;;;4976432;28;20084;-63
2023/09/23 10:16:59;;;;;;;1.90;1.10;;;;;;;;;;4976886;28;20031;-63
2023/09/23 10:19:38;;;;;;;1.95;1.10;;;;;;;;;;4976892;28;20030;-65
2023/09/23 10:22:20;;;;;;;2.10;1.30;;;;;;;;;;4976681;28;20027;-63
2023/09/23 10:24:56;;;;;;;2.25;1.00;;;;;;;;;;4976687;28;20491;-64
2023/09/23 10:27:24;;;;;;;4.07;1.63;;;;;;;;;;4976812;28;20026;-63
2023/09/23 10:29:49;;;;;;;1.92;1.02;;;;;;;;;;4989034;28;20122;-64
2023/09/23 10:32:16;;;;;;;1.60;0.98;;;;;;;;;;4995823;28;20109;-63
2023/09/23 10:34:47;;;;;;;3.38;1.30;;;;;;;;;;4987490;28;20050;-65
2023/09/23 10:37:15;;;;;;;2.83;1.17;;;;;;;;;;4976363;28;20114;-63
2023/09/23 10:39:44;;;;;;;2.70;1.10;;;;;;;;;;4976163;28;20034;-63
2023/09/23 10:42:14;;;;;;;2.90;1.20;;;;;;;;;;4976344;28;20022;-64
2023/09/23 10:44:39;;;;;;;3.15;1.27;;;;;;;;;;4976526;28;20146;-65
2023/09/23 10:47:05;;;;;;;3.42;1.30;;;;;;;;;;4976187;28;20062;-64
2023/09/23 10:49:31;;;;;;;3.30;1.20;;;;;;;;;;4976132;28;20027;-66
2023/09/23 10:51:57;;;;;;;1.75;1.02;;;;;;;;;;4976037;28;20620;-63
2023/09/23 10:54:24;;;;;;;2.08;1.00;;;;;;;;;;4976119;28;20031;-63
2023/09/23 10:56:49;;;;;;;1.67;1.02;;;;;;;;;;4976198;28;20041;-66
2023/09/23 10:59:15;;;;;;;2.85;0.95;;;;;;;;;;4976037;28;20034;-66
2023/09/23 11:01:42;;;;;;;1.58;0.95;;;;;;;;;;4975728;28;20606;-65
2023/09/23 11:04:08;;;;;;;1.67;1.13;;;;;;;;;;4975738;28;20058;-66
2023/09/23 11:06:33;;;;;;;4.25;1.00;;;;;;;;;;4975754;28;20424;-65
2023/09/23 11:09:00;;;;;;;3.47;1.10;;;;;;;;;;4975781;28;20511;-65
2023/09/23 11:11:25;;;;;;;2.92;1.05;;;;;;;;;;4975899;28;20101;-64
2023/09/23 11:13:53;;;;;;;2.42;1.10;;;;;;;;;;4975930;28;20121;-64
2023/09/23 11:16:21;;;;;;;2.22;0.88;;;;;;;;;;4975667;28;20030;-66
2023/09/23 11:18:47;;;;;;;2.78;0.98;;;;;;;;;;4975679;28;20128;-65
2023/09/23 11:21:13;;;;;;;1.75;1.00;;;;;;;;;;4975088;28;20056;-64
2023/09/23 11:23:38;;;;;;;3.38;1.20;;;;;;;;;;4975596;28;20035;-63
2023/09/23 11:26:06;;;;;;;2.10;1.23;;;;;;;;;;4975565;28;20055;-64
2023/09/23 11:28:31;;;;;;;2.03;0.90;;;;;;;;;;4975271;28;20488;-63
2023/09/23 11:30:57;;;;;;;7.25;1.20;;;;;;;;;;4975394;28;20046;-63
2023/09/23 11:33:23;;;;;;;2.58;1.20;;;;;;;;;;4975155;28;20031;-65
2023/09/23 11:35:48;;;;;;;1.45;1.00;;;;;;;;;;4975408;28;20030;-63
2023/09/23 11:38:14;;;;;;;1.50;0.90;;;;;;;;;;4975192;28;20058;-63
2023/09/23 11:40:40;;;;;;;3.45;1.20;;;;;;;;;;4975038;28;20031;-63
2023/09/23 11:43:07;;;;;;;2.40;1.10;;;;;;;;;;4974946;28;20030;-64
2023/09/23 11:45:33;;;;;;;1.50;1.00;;;;;;;;;;4975264;28;20019;-63
2023/09/23 11:47:59;;;;;;;6.57;1.45;;;;;;;;;;4975171;28;20050;-63
2023/09/23 11:50:29;;;;;;;3.35;1.67;;;;;;;;;;4971107;28;20085;-63
2023/09/23 11:52:55;;;;;;;6.30;1.95;;;;;;;;;;4964545;28;20113;-66
2023/09/23 11:55:22;;;;;;;2.20;1.33;;;;;;;;;;4967809;28;20146;-63
2023/09/23 11:57:48;;;;;;;2.17;1.10;;;;;;;;;;4975124;28;20113;-63
2023/09/23 12:00:15;;;;;;;4.07;1.13;;;;;;;;;;4974975;28;20033;-63
2023/09/23 12:02:41;;;;;;;2.65;1.10;;;;;;;;;;4974011;28;20058;-65
2023/09/23 12:05:16;;;;;;;2.33;1.27;;;;;;;;;;4974992;28;20023;-64
2023/09/23 12:07:44;;;;;;;2.17;1.20;;;;;;;;;;4974716;28;20431;-63
2023/09/23 12:10:13;;;;;;;1.65;1.15;;;;;;;;;;4974837;28;20039;-63
2023/09/23 12:12:39;;;;;;;3.53;1.33;;;;;;;;;;4974760;28;20039;-63
2023/09/23 12:15:08;;;;;;;1.85;1.15;;;;;;;;;;4974701;28;20022;-63
2023/09/23 12:17:34;;;;;;;3.05;1.38;;;;;;;;;;4974640;28;20034;-63
2023/09/23 12:20:00;;;;;;;2.83;1.33;;;;;;;;;;4974653;28;20035;-65
2023/09/23 12:22:26;;;;;;;2.72;1.30;;;;;;;;;;4974519;28;20102;-64
2023/09/23 12:24:52;;;;;;;2.40;1.30;;;;;;;;;;4974678;28;20031;-64
2023/09/23 12:27:17;;;;;;;2.10;1.20;;;;;;;;;;4974453;28;20038;-65
2023/09/23 12:29:43;;;;;;;1.90;1.20;;;;;;;;;;4974442;28;20393;-64
2023/09/23 12:32:10;;;;;;;2.95;1.33;;;;;;;;;;4973827;28;20047;-65
2023/09/23 12:34:36;;;;;;;2.70;1.40;;;;;;;;;;4974287;28;20027;-65
2023/09/23 12:37:01;;;;;;;2.80;1.45;;;;;;;;;;4974360;28;20046;-65
2023/09/23 12:39:26;;;;;;;2.13;1.35;;;;;;;;;;4974109;28;20054;-65
2023/09/23 12:41:52;;;;;;;3.45;1.40;;;;;;;;;;4974323;28;20484;-66
2023/09/23 12:44:18;;;;;;;2.55;1.33;;;;;;;;;;4974180;28;20031;-64
2023/09/23 12:46:44;;;;;;;2.58;1.30;;;;;;;;;;4974098;28;20033;-65
2023/09/23 12:49:10;;;;;;;2.75;1.33;;;;;;;;;;4974201;28;20026;-65
2023/09/23 12:51:38;;;;;;;3.22;1.50;;;;;;;;;;4974231;28;20101;-65
2023/09/23 12:54:06;;;;;;;2.35;1.40;;;;;;;;;;4974441;28;20033;-64
2023/09/23 12:56:32;;;;;;;2.78;1.83;;;;;;;;;;4974148;28;20041;-66
2023/09/23 12:58:57;;;;;;;2.20;1.70;;;;;;;;;;4972774;28;20117;-66
2023/09/23 13:01:23;;;;;;;2.00;1.50;;;;;;;;;;4973706;28;20488;-65
2023/09/23 13:03:48;;;;;;;2.38;1.50;;;;;;;;;;4968307;28;20434;-65
2023/09/23 13:06:14;;;;;;;2.90;1.50;;;;;;;;;;4962913;28;20050;-65
2023/09/23 13:08:39;;;;;;;2.65;1.75;;;;;;;;;;4964837;28;20026;-65
2023/09/23 13:11:05;;;;;;;2.00;1.30;;;;;;;;;;4963465;28;20555;-65
2023/09/23 13:13:30;;;;;;;2.58;1.80;;;;;;;;;;4965503;28;20073;-63
2023/09/23 13:15:55;;;;;;;3.35;1.60;;;;;;;;;;4973592;28;20058;-66
2023/09/23 13:18:21;;;;;;;2.75;1.60;;;;;;;;;;4973920;28;20495;-65
2023/09/23 13:20:48;;;;;;;3.97;1.70;;;;;;;;;;4973922;28;20023;-65
2023/09/23 13:23:13;;;;;;;2.55;1.33;;;;;;;;;;4973709;28;20069;-65
2023/09/23 13:25:39;;;;;;;1.80;1.20;;;;;;;;;;4973705;28;20027;-65
2023/09/23 13:28:06;;;;;;;3.63;1.38;;;;;;;;;;4973715;28;20027;-65
2023/09/23 13:30:32;;;;;;;2.80;1.50;;;;;;;;;;4973600;28;20607;-66
2023/09/23 13:32:57;;;;;;;2.20;1.40;;;;;;;;;;4973702;28;20109;-65
2023/09/23 13:35:22;;;;;;;1.77;1.17;;;;;;;;;;4973744;28;20027;-65
2023/09/23 13:37:48;;;;;;;3.13;1.40;;;;;;;;;;4973727;28;20473;-65
2023/09/23 13:40:13;;;;;;;3.55;1.20;;;;;;;;;;4973309;28;20157;-66
2023/09/23 13:42:39;;;;;;;2.22;1.20;;;;;;;;;;4973680;28;20081;-66
2023/09/23 13:45:08;;;;;;;2.97;1.30;;;;;;;;;;4975935;28;20035;-66
2023/09/23 13:47:33;;;;;;;2.40;1.10;;;;;;;;;;4977597;28;20073;-66
2023/09/23 13:50:00;;;;;;;2.20;1.30;;;;;;;;;;4977516;28;20023;-64
2023/09/23 13:52:26;;;;;;;1.60;1.10;;;;;;;;;;4977477;28;20039;-66
2023/09/23 13:54:52;;;;;;;3.38;1.55;;;;;;;;;;4977510;28;20074;-66
2023/09/23 13:57:18;;;;;;;2.88;1.20;;;;;;;;;;4977233;28;20451;-66
2023/09/23 13:59:43;;;;;;;2.60;1.30;;;;;;;;;;4977075;28;20119;-66
2023/09/23 14:02:12;;;;;;;2.20;1.20;;;;;;;;;;4977016;28;20043;-65
2023/09/23 14:04:38;;;;;;;2.47;0.95;;;;;;;;;;4977211;28;20070;-66
2023/09/23 14:07:04;;;;;;;6.10;1.95;;;;;;;;;;4976905;28;20050;-64
2023/09/23 14:09:30;;;;;;;1.75;1.10;;;;;;;;;;4977019;28;20033;-64
2023/09/23 14:11:56;;;;;;;1.50;1.10;;;;;;;;;;4976999;28;20026;-65
2023/09/23 14:14:21;;;;;;;2.60;1.10;;;;;;;;;;4977051;28;20030;-64
2023/09/23 14:16:47;;;;;;;2.65;1.13;;;;;;;;;;4976915;28;20093;-65
2023/09/23 14:19:13;;;;;;;1.80;1.10;;;;;;;;;;4976743;28;20444;-64
2023/09/23 14:21:38;;;;;;;9.75;1.88;;;;;;;;;;4976767;28;20022;-64
2023/09/23 14:24:04;;;;;;;1.55;1.10;;;;;;;;;;4975380;28;20126;-65
2023/09/23 14:26:30;;;;;;;1.70;1.17;;;;;;;;;;4976575;28;20027;-63
2023/09/23 14:28:55;;;;;;;4.18;1.40;;;;;;;;;;4976584;28;20037;-64
2023/09/23 14:31:21;;;;;;;3.58;1.25;;;;;;;;;;4976901;28;20081;-66
2023/09/23 14:33:46;;;;;;;4.07;1.30;;;;;;;;;;4976651;28;20432;-66
2023/09/23 14:36:12;;;;;;;1.48;0.90;;;;;;;;;;4976563;28;20031;-64